sensor_id;sensor_type;location;lat;lon;timestamp;pressure;altitude;pressure_sealevel;temperature;humidity
49585;BME280;35491;49.142;9.210;2023-08-01T05:58:14;98484.47;;;18.75;81.42
49585;BME280;35491;49.142;9.210;2023-08-01T05:59:17;98485.53;;;18.74;81.20
49585;BME280;35491;49.142;9.210;2023-08-01T06:00:19;98482.97;;;18.79;81.54
49585;BME280;35491;49.142;9.210;2023-08-01T06:01:21;98486.84;;;18.83;81.33
49585;BME280;35491;49.142;9.210;2023-08-01T06:02:47;98482.00;;;18.85;81.32
49585;BME280;35491;49.142;9.210;2023-08-01T06:31:44;98531.53;;;17.96;89.85
49585;BME280;35491;49.142;9.210;2023-08-01T06:33:04;98530.28;;;17.80;91.06
49585;BME280;35491;49.142;9.210;2023-08-01T06:34:42;98519.63;;;17.85;91.28
49585;BME280;35491;49.142;9.210;2023-08-01T06:37:53;98518.09;;;17.89;92.07
49585;BME280;35491;49.142;9.210;2023-08-01T06:39:18;98514.50;;;17.77;92.36
49585;BME280;35491;49.142;9.210;2023-08-01T06:40:59;98496.56;;;17.83;92.43
49585;BME280;35491;49.142;9.210;2023-08-01T06:46:03;98485.97;;;17.81;92.15
49585;BME280;35491;49.142;9.210;2023-08-01T06:48:49;98486.59;;;17.83;91.65
49585;BME280;35491;49.142;9.210;2023-08-01T06:50:05;98493.50;;;17.79;92.25
49585;BME280;35491;49.142;9.210;2023-08-01T06:57:48;98503.47;;;17.48;95.16
49585;BME280;35491;49.142;9.210;2023-08-01T08:09:16;98493.94;;;17.76;94.99
49585;BME280;35491;49.142;9.210;2023-08-01T08:10:21;98487.97;;;17.74;95.01
49585;BME280;35491;49.142;9.210;2023-08-01T08:11:25;98499.13;;;17.77;94.74
49585;BME280;35491;49.142;9.210;2023-08-01T08:12:35;98486.31;;;17.73;94.10
49585;BME280;35491;49.142;9.210;2023-08-01T08:15:55;98492.44;;;17.80;92.40
49585;BME280;35491;49.142;9.210;2023-08-01T08:26:26;98481.28;;;17.88;92.66
49585;BME280;35491;49.142;9.210;2023-08-01T08:27:29;98486.69;;;17.88;92.21
49585;BME280;35491;49.142;9.210;2023-08-01T08:29:52;98478.75;;;17.93;91.76
49585;BME280;35491;49.142;9.210;2023-08-01T08:30:58;98478.06;;;17.98;91.59
49585;BME280;35491;49.142;9.210;2023-08-01T08:32:21;98473.78;;;17.90;91.24
49585;BME280;35491;49.142;9.210;2023-08-01T08:35:05;98483.09;;;17.95;91.21
49585;BME280;35491;49.142;9.210;2023-08-01T08:36:30;98493.00;;;18.01;90.99
49585;BME280;35491;49.142;9.210;2023-08-01T08:41:05;98490.06;;;18.02;89.74
49585;BME280;35491;49.142;9.210;2023-08-01T10:44:50;98520.09;;;22.47;62.67
49585;BME280;35491;49.142;9.210;2023-08-01T10:46:00;98522.44;;;22.71;62.41
49585;BME280;35491;49.142;9.210;2023-08-01T10:47:02;98530.72;;;22.54;62.51
49585;BME280;35491;49.142;9.210;2023-08-01T10:48:06;98527.84;;;22.66;62.54
49585;BME280;35491;49.142;9.210;2023-08-01T10:49:07;98515.34;;;22.70;61.83
49585;BME280;35491;49.142;9.210;2023-08-01T10:50:13;98515.03;;;22.61;61.44
49585;BME280;35491;49.142;9.210;2023-08-01T10:51:16;98511.44;;;22.55;61.23
49585;BME280;35491;49.142;9.210;2023-08-01T10:52:18;98508.22;;;22.31;61.77
49585;BME280;35491;49.142;9.210;2023-08-01T10:53:23;98507.00;;;22.49;60.56
49585;BME280;35491;49.142;9.210;2023-08-01T12:47:32;98576.41;;;23.17;45.56
49585;BME280;35491;49.142;9.210;2023-08-01T12:48:33;98587.81;;;23.09;44.92
49585;BME280;35491;49.142;9.210;2023-08-01T12:49:37;98590.53;;;23.09;44.75
49585;BME280;35491;49.142;9.210;2023-08-01T12:50:37;98586.19;;;23.13;45.11
49585;BME280;35491;49.142;9.210;2023-08-01T12:51:41;98575.19;;;23.02;45.47
49585;BME280;35491;49.142;9.210;2023-08-01T12:52:41;98588.31;;;23.05;45.12
49585;BME280;35491;49.142;9.210;2023-08-01T12:53:45;98570.13;;;23.16;45.22
49585;BME280;35491;49.142;9.210;2023-08-01T12:54:48;98573.44;;;23.18;45.12
49585;BME280;35491;49.142;9.210;2023-08-01T12:55:51;98573.19;;;23.25;45.23
49585;BME280;35491;49.142;9.210;2023-08-01T12:56:53;98578.66;;;23.25;45.44
49585;BME280;35491;49.142;9.210;2023-08-01T12:57:56;98574.75;;;23.16;45.62
49585;BME280;35491;49.142;9.210;2023-08-01T12:58:56;98589.91;;;23.01;45.54
49585;BME280;35491;49.142;9.210;2023-08-01T13:00:00;98588.25;;;22.95;46.00
49585;BME280;35491;49.142;9.210;2023-08-01T13:01:02;98589.91;;;23.01;45.63
49585;BME280;35491;49.142;9.210;2023-08-01T13:02:05;98581.25;;;23.10;45.55
49585;BME280;35491;49.142;9.210;2023-08-01T13:03:11;98570.66;;;23.13;45.58
49585;BME280;35491;49.142;9.210;2023-08-01T13:04:15;98572.47;;;23.02;45.19
49585;BME280;35491;49.142;9.210;2023-08-01T13:05:15;98574.00;;;23.20;44.90
49585;BME280;35491;49.142;9.210;2023-08-01T13:06:19;98567.47;;;23.21;44.42
49585;BME280;35491;49.142;9.210;2023-08-01T13:07:20;98566.09;;;23.24;45.24
49585;BME280;35491;49.142;9.210;2023-08-01T13:08:23;98569.16;;;23.33;44.94
49585;BME280;35491;49.142;9.210;2023-08-01T13:09:24;98569.09;;;23.23;44.69
49585;BME280;35491;49.142;9.210;2023-08-01T13:10:29;98578.94;;;23.29;44.02
49585;BME280;35491;49.142;9.210;2023-08-01T13:11:30;98572.69;;;23.33;43.98
49585;BME280;35491;49.142;9.210;2023-08-01T13:12:33;98577.28;;;23.23;44.11
49585;BME280;35491;49.142;9.210;2023-08-01T13:13:34;98585.00;;;23.41;44.21
49585;BME280;35491;49.142;9.210;2023-08-01T13:14:37;98576.22;;;23.34;44.12
49585;BME280;35491;49.142;9.210;2023-08-01T13:15:38;98576.50;;;23.27;44.97
49585;BME280;35491;49.142;9.210;2023-08-01T13:16:41;98584.66;;;23.27;44.76
49585;BME280;35491;49.142;9.210;2023-08-01T13:17:42;98586.25;;;23.23;44.97
49585;BME280;35491;49.142;9.210;2023-08-01T13:18:48;98582.22;;;23.31;44.99
49585;BME280;35491;49.142;9.210;2023-08-01T13:19:49;98574.63;;;23.33;44.42
49585;BME280;35491;49.142;9.210;2023-08-01T13:20:52;98572.13;;;23.31;44.48
49585;BME280;35491;49.142;9.210;2023-08-01T13:21:55;98577.13;;;23.45;44.51
49585;BME280;35491;49.142;9.210;2023-08-01T13:22:58;98584.28;;;23.56;44.53
49585;BME280;35491;49.142;9.210;2023-08-01T13:23:59;98576.38;;;23.65;44.66
49585;BME280;35491;49.142;9.210;2023-08-01T13:25:05;98587.00;;;23.61;44.65
49585;BME280;35491;49.142;9.210;2023-08-01T13:26:06;98588.38;;;23.59;44.32
49585;BME280;35491;49.142;9.210;2023-08-01T13:27:07;98580.22;;;23.69;44.66
49585;BME280;35491;49.142;9.210;2023-08-01T13:28:11;98592.41;;;23.51;43.70
49585;BME280;35491;49.142;9.210;2023-08-01T13:29:12;98584.22;;;23.46;43.71
49585;BME280;35491;49.142;9.210;2023-08-01T13:30:15;98587.75;;;23.41;43.30
49585;BME280;35491;49.142;9.210;2023-08-01T13:31:18;98589.66;;;23.46;43.01
49585;BME280;35491;49.142;9.210;2023-08-01T13:32:21;98581.50;;;23.46;43.24
49585;BME280;35491;49.142;9.210;2023-08-01T13:33:22;98588.59;;;23.47;43.43
49585;BME280;35491;49.142;9.210;2023-08-01T13:34:25;98596.38;;;23.23;43.17
49585;BME280;35491;49.142;9.210;2023-08-01T13:35:29;98597.25;;;23.39;42.92
49585;BME280;35491;49.142;9.210;2023-08-01T13:36:29;98588.81;;;23.40;42.93
49585;BME280;35491;49.142;9.210;2023-08-01T13:37:33;98591.25;;;23.36;42.34
49585;BME280;35491;49.142;9.210;2023-08-01T13:38:35;98586.00;;;23.25;42.50
49585;BME280;35491;49.142;9.210;2023-08-01T13:39:36;98599.63;;;23.25;42.49
49585;BME280;35491;49.142;9.210;2023-08-01T13:40:39;98587.13;;;23.34;43.09
49585;BME280;35491;49.142;9.210;2023-08-01T13:41:40;98582.75;;;23.28;42.67
49585;BME280;35491;49.142;9.210;2023-08-01T13:42:43;98579.50;;;23.31;42.37
49585;BME280;35491;49.142;9.210;2023-08-01T13:43:44;98582.22;;;23.31;42.56
49585;BME280;35491;49.142;9.210;2023-08-01T13:47:10;98592.66;;;23.44;42.27
49585;BME280;35491;49.142;9.210;2023-08-01T13:48:13;98599.00;;;23.60;42.24
49585;BME280;35491;49.142;9.210;2023-08-01T13:49:14;98593.25;;;23.57;41.97
49585;BME280;35491;49.142;9.210;2023-08-01T13:50:20;98581.84;;;23.65;41.78
49585;BME280;35491;49.142;9.210;2023-08-01T13:51:21;98582.44;;;23.82;41.52
49585;BME280;35491;49.142;9.210;2023-08-01T13:52:24;98583.81;;;23.80;41.40
49585;BME280;35491;49.142;9.210;2023-08-01T13:53:25;98590.59;;;23.72;41.36
49585;BME280;35491;49.142;9.210;2023-08-01T13:54:28;98581.88;;;23.75;41.17
49585;BME280;35491;49.142;9.210;2023-08-01T13:55:29;98575.56;;;23.64;41.05
49585;BME280;35491;49.142;9.210;2023-08-01T13:56:32;98577.50;;;23.74;40.74
49585;BME280;35491;49.142;9.210;2023-08-01T13:57:33;98579.09;;;23.65;40.95
49585;BME280;35491;49.142;9.210;2023-08-01T13:58:37;98575.03;;;23.67;40.65
49585;BME280;35491;49.142;9.210;2023-08-01T13:59:37;98581.31;;;23.68;40.61
49585;BME280;35491;49.142;9.210;2023-08-01T14:00:42;98572.59;;;23.76;40.66
49585;BME280;35491;49.142;9.210;2023-08-01T14:01:43;98579.16;;;23.70;40.88
49585;BME280;35491;49.142;9.210;2023-08-01T14:02:46;98579.44;;;23.74;41.09
49585;BME280;35491;49.142;9.210;2023-08-01T14:03:49;98585.72;;;23.84;40.62
49585;BME280;35491;49.142;9.210;2023-08-01T14:04:52;98591.13;;;23.69;40.05
49585;BME280;35491;49.142;9.210;2023-08-01T14:06:02;98580.97;;;23.54;40.13
49585;BME280;35491;49.142;9.210;2023-08-01T14:07:06;98569.31;;;23.74;39.71
49585;BME280;35491;49.142;9.210;2023-08-01T14:08:06;98580.75;;;23.61;40.11
49585;BME280;35491;49.142;9.210;2023-08-01T14:09:10;98575.28;;;23.61;40.63
49585;BME280;35491;49.142;9.210;2023-08-01T14:10:11;98581.03;;;23.70;41.06
49585;BME280;35491;49.142;9.210;2023-08-01T14:11:15;98583.00;;;23.79;41.33
49585;BME280;35491;49.142;9.210;2023-08-01T14:12:15;98580.00;;;23.81;41.37
49585;BME280;35491;49.142;9.210;2023-08-01T14:13:19;98578.06;;;23.81;41.52
49585;BME280;35491;49.142;9.210;2023-08-01T14:14:20;98587.34;;;23.75;41.73
49585;BME280;35491;49.142;9.210;2023-08-01T14:15:23;98575.56;;;23.64;41.40
49585;BME280;35491;49.142;9.210;2023-08-01T14:16:24;98575.31;;;23.71;41.39
49585;BME280;35491;49.142;9.210;2023-08-01T14:17:28;98573.13;;;23.68;41.43
49585;BME280;35491;49.142;9.210;2023-08-01T14:18:28;98575.81;;;23.58;41.34
49585;BME280;35491;49.142;9.210;2023-08-01T14:19:32;98580.94;;;23.49;41.42
49585;BME280;35491;49.142;9.210;2023-08-01T14:20:33;98579.56;;;23.41;41.71
49585;BME280;35491;49.142;9.210;2023-08-01T14:21:40;98580.88;;;23.33;41.51
49585;BME280;35491;49.142;9.210;2023-08-01T14:22:41;98585.53;;;23.43;41.71
49585;BME280;35491;49.142;9.210;2023-08-01T14:23:45;98600.75;;;23.34;41.70
49585;BME280;35491;49.142;9.210;2023-08-01T14:24:47;98595.88;;;23.31;42.01
49585;BME280;35491;49.142;9.210;2023-08-01T14:26:54;98583.94;;;23.52;41.88
49585;BME280;35491;49.142;9.210;2023-08-01T14:27:57;98588.31;;;23.48;41.73
49585;BME280;35491;49.142;9.210;2023-08-01T14:28:58;98589.97;;;23.49;41.66
49585;BME280;35491;49.142;9.210;2023-08-01T14:30:02;98595.66;;;23.43;42.13
49585;BME280;35491;49.142;9.210;2023-08-01T14:31:04;98598.13;;;23.49;42.16
49585;BME280;35491;49.142;9.210;2023-08-01T14:32:08;98590.47;;;23.46;41.77
49585;BME280;35491;49.142;9.210;2023-08-01T14:33:08;98593.47;;;23.45;41.77
49585;BME280;35491;49.142;9.210;2023-08-01T14:34:12;98582.91;;;23.59;41.60
49585;BME280;35491;49.142;9.210;2023-08-01T14:35:13;98587.56;;;23.68;41.44
49585;BME280;35491;49.142;9.210;2023-08-01T14:36:14;98582.72;;;23.81;41.10
49585;BME280;35491;49.142;9.210;2023-08-01T14:37:19;98589.00;;;23.87;41.17
49585;BME280;35491;49.142;9.210;2023-08-01T14:38:24;98591.19;;;23.79;41.39
49585;BME280;35491;49.142;9.210;2023-08-01T14:39:27;98595.00;;;23.78;41.83
49585;BME280;35491;49.142;9.210;2023-08-01T14:40:28;98586.16;;;23.50;41.20
49585;BME280;35491;49.142;9.210;2023-08-01T14:41:32;98588.06;;;23.55;41.23
49585;BME280;35491;49.142;9.210;2023-08-01T14:42:34;98593.81;;;23.64;41.48
49585;BME280;35491;49.142;9.210;2023-08-01T14:43:37;98598.75;;;23.72;41.10
49585;BME280;35491;49.142;9.210;2023-08-01T14:44:38;98598.25;;;23.75;40.78
49585;BME280;35491;49.142;9.210;2023-08-01T14:45:41;98605.34;;;23.76;40.83
49585;BME280;35491;49.142;9.210;2023-08-01T14:46:42;98601.81;;;23.86;40.69
49585;BME280;35491;49.142;9.210;2023-08-01T14:47:45;98606.53;;;23.96;40.60
49585;BME280;35491;49.142;9.210;2023-08-01T14:48:46;98597.81;;;24.04;40.75
49585;BME280;35491;49.142;9.210;2023-08-01T14:49:47;98599.19;;;24.07;40.15
49585;BME280;35491;49.142;9.210;2023-08-01T14:50:50;98601.13;;;24.06;40.61
49585;BME280;35491;49.142;9.210;2023-08-01T14:51:51;98599.44;;;24.00;40.18
49585;BME280;35491;49.142;9.210;2023-08-01T14:52:57;98602.19;;;24.10;39.70
49585;BME280;35491;49.142;9.210;2023-08-01T14:53:58;98601.66;;;24.08;39.03
49585;BME280;35491;49.142;9.210;2023-08-01T14:55:01;98605.22;;;24.24;38.53
49585;BME280;35491;49.142;9.210;2023-08-01T14:56:02;98608.78;;;24.30;38.05
49585;BME280;35491;49.142;9.210;2023-08-01T14:57:08;98603.06;;;24.37;37.80
49585;BME280;35491;49.142;9.210;2023-08-01T14:58:09;98603.09;;;24.57;37.68
49585;BME280;35491;49.142;9.210;2023-08-01T14:59:12;98600.09;;;24.85;37.55
49585;BME280;35491;49.142;9.210;2023-08-01T15:01:18;98590.22;;;25.25;36.80
49585;BME280;35491;49.142;9.210;2023-08-01T15:02:21;98595.38;;;25.52;36.71
49585;BME280;35491;49.142;9.210;2023-08-01T15:03:22;98594.75;;;25.66;36.61
49585;BME280;35491;49.142;9.210;2023-08-01T15:04:26;98593.97;;;25.60;36.20
49585;BME280;35491;49.142;9.210;2023-08-01T15:05:27;98607.50;;;25.96;36.11
49585;BME280;35491;49.142;9.210;2023-08-01T15:06:30;98608.75;;;25.59;36.41
49585;BME280;35491;49.142;9.210;2023-08-01T15:07:31;98605.16;;;25.69;36.53
49585;BME280;35491;49.142;9.210;2023-08-01T15:08:37;98607.03;;;25.74;36.34
49585;BME280;35491;49.142;9.210;2023-08-01T15:09:41;98601.16;;;25.25;37.12
49585;BME280;35491;49.142;9.210;2023-08-01T15:10:45;98614.84;;;25.15;36.27
49585;BME280;35491;49.142;9.210;2023-08-01T15:11:45;98623.03;;;25.25;35.72
49585;BME280;35491;49.142;9.210;2023-08-01T15:12:49;98618.09;;;25.37;35.40
49585;BME280;35491;49.142;9.210;2023-08-01T15:13:50;98612.34;;;25.54;34.97
49585;BME280;35491;49.142;9.210;2023-08-01T15:14:53;98604.41;;;25.37;35.10
49585;BME280;35491;49.142;9.210;2023-08-01T15:15:55;98598.91;;;25.58;35.22
49585;BME280;35491;49.142;9.210;2023-08-01T15:16:58;98610.88;;;25.78;35.18
49585;BME280;35491;49.142;9.210;2023-08-01T15:17:59;98609.50;;;25.80;35.29
49585;BME280;35491;49.142;9.210;2023-08-01T15:19:02;98608.84;;;25.99;35.17
49585;BME280;35491;49.142;9.210;2023-08-01T15:20:04;98608.00;;;25.98;34.76
49585;BME280;35491;49.142;9.210;2023-08-01T15:21:07;98603.22;;;25.75;35.18
49585;BME280;35491;49.142;9.210;2023-08-01T15:22:08;98598.28;;;25.72;35.08
49585;BME280;35491;49.142;9.210;2023-08-01T15:23:12;98608.22;;;25.57;35.28
49585;BME280;35491;49.142;9.210;2023-08-01T15:24:15;98612.53;;;25.74;35.23
49585;BME280;35491;49.142;9.210;2023-08-01T15:25:18;98609.50;;;25.80;34.72
49585;BME280;35491;49.142;9.210;2023-08-01T15:26:19;98606.53;;;25.66;35.20
49585;BME280;35491;49.142;9.210;2023-08-01T15:27:23;98605.38;;;25.83;34.55
49585;BME280;35491;49.142;9.210;2023-08-01T15:28:24;98607.91;;;25.59;34.94
49585;BME280;35491;49.142;9.210;2023-08-01T15:29:28;98614.81;;;25.25;35.22
49585;BME280;35491;49.142;9.210;2023-08-01T15:30:29;98606.66;;;25.10;35.68
49585;BME280;35491;49.142;9.210;2023-08-01T15:31:33;98614.28;;;25.23;35.95
49585;BME280;35491;49.142;9.210;2023-08-01T15:32:34;98605.81;;;25.25;35.67
49585;BME280;35491;49.142;9.210;2023-08-01T15:33:38;98613.72;;;25.26;35.36
49585;BME280;35491;49.142;9.210;2023-08-01T15:34:39;98600.91;;;25.11;35.69
49585;BME280;35491;49.142;9.210;2023-08-01T15:35:42;98614.31;;;25.13;36.03
49585;BME280;35491;49.142;9.210;2023-08-01T15:36:43;98614.59;;;25.16;36.02
49585;BME280;35491;49.142;9.210;2023-08-01T15:37:49;98611.53;;;25.44;35.92
49585;BME280;35491;49.142;9.210;2023-08-01T15:38:50;98615.41;;;25.22;36.10
49585;BME280;35491;49.142;9.210;2023-08-01T15:39:56;98610.72;;;25.28;36.28
49585;BME280;35491;49.142;9.210;2023-08-01T15:40:57;98610.44;;;25.45;35.75
49585;BME280;35491;49.142;9.210;2023-08-01T15:41:57;98609.88;;;25.37;36.17
49585;BME280;35491;49.142;9.210;2023-08-01T15:43:01;98613.19;;;25.19;36.09
49585;BME280;35491;49.142;9.210;2023-08-01T15:44:02;98604.44;;;25.27;35.78
49585;BME280;35491;49.142;9.210;2023-08-01T15:45:07;98619.97;;;25.37;35.91
49585;BME280;35491;49.142;9.210;2023-08-01T15:46:08;98620.31;;;25.10;36.52
49585;BME280;35491;49.142;9.210;2023-08-01T15:47:11;98626.34;;;24.86;36.65
49585;BME280;35491;49.142;9.210;2023-08-01T15:48:12;98617.59;;;25.04;36.23
49585;BME280;35491;49.142;9.210;2023-08-01T15:49:15;98629.09;;;24.70;36.81
49585;BME280;35491;49.142;9.210;2023-08-01T15:50:16;98626.34;;;24.75;36.49
49585;BME280;35491;49.142;9.210;2023-08-01T15:51:20;98625.78;;;24.68;36.55
49585;BME280;35491;49.142;9.210;2023-08-01T15:52:21;98627.16;;;24.71;36.67
49585;BME280;35491;49.142;9.210;2023-08-01T15:53:24;98624.13;;;24.67;36.58
49585;BME280;35491;49.142;9.210;2023-08-01T15:54:25;98629.84;;;24.45;37.30
49585;BME280;35491;49.142;9.210;2023-08-01T15:55:31;98621.91;;;24.38;37.07
49585;BME280;35491;49.142;9.210;2023-08-01T15:56:32;98623.03;;;24.53;37.20
49585;BME280;35491;49.142;9.210;2023-08-01T15:57:36;98615.97;;;24.72;37.04
49585;BME280;35491;49.142;9.210;2023-08-01T15:58:36;98620.03;;;24.59;37.20
49585;BME280;35491;49.142;9.210;2023-08-01T15:59:40;98628.78;;;24.67;37.56
49585;BME280;35491;49.142;9.210;2023-08-01T16:00:41;98615.63;;;24.43;38.29
49585;BME280;35491;49.142;9.210;2023-08-01T16:01:46;98612.38;;;24.46;38.38
49585;BME280;35491;49.142;9.210;2023-08-01T16:02:47;98613.75;;;24.43;38.31
49585;BME280;35491;49.142;9.210;2023-08-01T16:03:50;98621.06;;;24.27;38.67
49585;BME280;35491;49.142;9.210;2023-08-01T16:04:51;98624.91;;;24.37;38.54
49585;BME280;35491;49.142;9.210;2023-08-01T16:05:54;98621.38;;;24.41;38.81
49585;BME280;35491;49.142;9.210;2023-08-01T16:06:57;98625.19;;;24.25;38.92
49585;BME280;35491;49.142;9.210;2023-08-01T16:08:00;98624.59;;;24.07;39.31
49585;BME280;35491;49.142;9.210;2023-08-01T16:09:01;98635.50;;;24.12;39.17
49585;BME280;35491;49.142;9.210;2023-08-01T16:10:05;98634.41;;;24.13;39.44
49585;BME280;35491;49.142;9.210;2023-08-01T16:11:08;98626.22;;;24.13;39.17
49585;BME280;35491;49.142;9.210;2023-08-01T16:12:11;98633.31;;;24.09;39.27
49585;BME280;35491;49.142;9.210;2023-08-01T16:13:12;98628.38;;;24.01;39.27
49585;BME280;35491;49.142;9.210;2023-08-01T16:14:13;98620.66;;;23.93;39.42
49585;BME280;35491;49.142;9.210;2023-08-01T16:15:16;98635.22;;;24.04;39.29
49585;BME280;35491;49.142;9.210;2023-08-01T16:16:17;98634.84;;;23.84;39.65
49585;BME280;35491;49.142;9.210;2023-08-01T16:17:21;98634.56;;;23.81;40.02
49585;BME280;35491;49.142;9.210;2023-08-01T16:18:21;98636.44;;;23.75;39.44
49585;BME280;35491;49.142;9.210;2023-08-01T16:19:25;98628.81;;;23.82;39.26
49585;BME280;35491;49.142;9.210;2023-08-01T16:20:26;98631.22;;;23.68;39.52
49585;BME280;35491;49.142;9.210;2023-08-01T16:21:29;98641.38;;;23.78;39.39
49585;BME280;35491;49.142;9.210;2023-08-01T16:22:30;98638.63;;;23.78;39.25
49585;BME280;35491;49.142;9.210;2023-08-01T16:23:33;98642.88;;;23.53;39.86
49585;BME280;35491;49.142;9.210;2023-08-01T16:24:34;98632.81;;;23.59;39.87
49585;BME280;35491;49.142;9.210;2023-08-01T16:25:38;98636.03;;;23.46;40.58
49585;BME280;35491;49.142;9.210;2023-08-01T16:26:41;98626.44;;;23.43;40.65
49585;BME280;35491;49.142;9.210;2023-08-01T16:27:45;98637.25;;;23.28;40.60
49585;BME280;35491;49.142;9.210;2023-08-01T16:28:47;98643.00;;;23.26;40.54
49585;BME280;35491;49.142;9.210;2023-08-01T16:29:50;98638.41;;;23.32;40.49
49585;BME280;35491;49.142;9.210;2023-08-01T16:30:51;98635.38;;;23.28;40.89
49585;BME280;35491;49.142;9.210;2023-08-01T16:31:54;98638.13;;;23.33;40.80
49585;BME280;35491;49.142;9.210;2023-08-01T16:32:55;98641.38;;;23.30;41.38
49585;BME280;35491;49.142;9.210;2023-08-01T16:33:58;98642.78;;;23.38;40.90
49585;BME280;35491;49.142;9.210;2023-08-01T16:34:59;98645.28;;;23.45;41.11
49585;BME280;35491;49.142;9.210;2023-08-01T16:36:02;98646.00;;;23.30;41.17
49585;BME280;35491;49.142;9.210;2023-08-01T16:37:04;98635.78;;;23.15;41.44
49585;BME280;35491;49.142;9.210;2023-08-01T16:38:07;98649.75;;;23.18;41.16
49585;BME280;35491;49.142;9.210;2023-08-01T16:39:08;98651.78;;;23.01;41.83
49585;BME280;35491;49.142;9.210;2023-08-01T16:40:11;98651.72;;;22.96;41.54
49585;BME280;35491;49.142;9.210;2023-08-01T16:41:12;98649.03;;;23.01;41.42
49585;BME280;35491;49.142;9.210;2023-08-01T16:42:25;98648.53;;;23.04;41.77
49585;BME280;35491;49.142;9.210;2023-08-01T16:43:26;98643.69;;;23.11;41.37
49585;BME280;35491;49.142;9.210;2023-08-01T16:44:29;98650.47;;;23.09;41.60
49585;BME280;35491;49.142;9.210;2023-08-01T16:45:30;98643.09;;;23.04;42.31
49585;BME280;35491;49.142;9.210;2023-08-01T16:46:34;98651.28;;;23.09;42.18
49585;BME280;35491;49.142;9.210;2023-08-01T16:47:34;98652.41;;;23.13;42.20
49585;BME280;35491;49.142;9.210;2023-08-01T16:48:38;98649.22;;;23.21;42.07
49585;BME280;35491;49.142;9.210;2023-08-01T16:49:39;98652.38;;;23.08;42.04
49585;BME280;35491;49.142;9.210;2023-08-01T16:50:39;98651.34;;;23.14;42.36
49585;BME280;35491;49.142;9.210;2023-08-01T16:51:43;98655.56;;;23.32;42.25
49585;BME280;35491;49.142;9.210;2023-08-01T16:52:44;98659.91;;;23.28;42.43
49585;BME280;35491;49.142;9.210;2023-08-01T16:53:47;98654.69;;;23.21;42.19
49585;BME280;35491;49.142;9.210;2023-08-01T16:54:48;98654.47;;;23.33;42.00
49585;BME280;35491;49.142;9.210;2023-08-01T16:55:52;98656.41;;;23.33;42.11
49585;BME280;35491;49.142;9.210;2023-08-01T16:56:55;98657.13;;;23.23;42.11
49585;BME280;35491;49.142;9.210;2023-08-01T16:58:01;98657.59;;;23.15;42.17
49585;BME280;35491;49.142;9.210;2023-08-01T16:59:02;98659.59;;;23.25;41.89
49585;BME280;35491;49.142;9.210;2023-08-01T17:00:06;98660.53;;;23.08;41.97
49585;BME280;35491;49.142;9.210;2023-08-01T17:01:08;98659.59;;;23.25;41.82
49585;BME280;35491;49.142;9.210;2023-08-01T17:02:11;98656.22;;;23.12;42.08
49585;BME280;35491;49.142;9.210;2023-08-01T17:03:15;98663.75;;;23.00;41.96
49585;BME280;35491;49.142;9.210;2023-08-01T17:04:18;98663.84;;;23.10;41.71
49585;BME280;35491;49.142;9.210;2023-08-01T17:05:21;98667.91;;;23.08;41.62
49585;BME280;35491;49.142;9.210;2023-08-01T17:06:22;98671.91;;;23.00;42.19
49585;BME280;35491;49.142;9.210;2023-08-01T17:07:25;98673.78;;;22.94;42.30
49585;BME280;35491;49.142;9.210;2023-08-01T17:08:26;98674.56;;;22.89;41.92
49585;BME280;35491;49.142;9.210;2023-08-01T17:09:29;98669.94;;;22.90;42.01
49585;BME280;35491;49.142;9.210;2023-08-01T17:10:30;98680.28;;;22.88;42.15
49585;BME280;35491;49.142;9.210;2023-08-01T17:11:33;98675.59;;;22.83;42.15
49585;BME280;35491;49.142;9.210;2023-08-01T17:12:34;98678.91;;;22.85;42.27
49585;BME280;35491;49.142;9.210;2023-08-01T17:13:40;98690.91;;;22.89;41.83
49585;BME280;35491;49.142;9.210;2023-08-01T17:14:41;98681.34;;;22.87;42.05
49585;BME280;35491;49.142;9.210;2023-08-01T17:15:44;98693.16;;;22.98;42.00
49585;BME280;35491;49.142;9.210;2023-08-01T17:16:45;98687.66;;;22.93;41.88
49585;BME280;35491;49.142;9.210;2023-08-01T20:23:35;98935.44;;;19.32;62.26
49585;BME280;35491;49.142;9.210;2023-08-01T20:24:39;98933.69;;;19.38;61.81
49585;BME280;35491;49.142;9.210;2023-08-01T20:25:39;98936.03;;;19.34;62.20
49585;BME280;35491;49.142;9.210;2023-08-01T20:26:43;98930.84;;;19.32;62.13
49585;BME280;35491;49.142;9.210;2023-08-01T20:27:45;98936.66;;;19.36;61.83
49585;BME280;35491;49.142;9.210;2023-08-01T20:28:48;98933.94;;;19.36;61.88
49585;BME280;35491;49.142;9.210;2023-08-01T20:29:49;98936.50;;;19.31;62.43
49585;BME280;35491;49.142;9.210;2023-08-01T20:30:52;98933.41;;;19.27;62.26
49585;BME280;35491;49.142;9.210;2023-08-01T20:31:53;98939.88;;;19.26;62.55
49585;BME280;35491;49.142;9.210;2023-08-01T20:32:57;98946.97;;;19.27;62.33
49585;BME280;35491;49.142;9.210;2023-08-01T20:33:57;98950.97;;;19.25;62.33
49585;BME280;35491;49.142;9.210;2023-08-01T20:35:01;98940.13;;;19.25;62.44
49585;BME280;35491;49.142;9.210;2023-08-01T20:36:02;98942.97;;;19.30;62.11
49585;BME280;35491;49.142;9.210;2023-08-01T20:37:05;98944.63;;;19.31;62.32
49585;BME280;35491;49.142;9.210;2023-08-01T20:38:06;98938.59;;;19.29;62.15
49585;BME280;35491;49.142;9.210;2023-08-01T20:39:15;98944.16;;;19.34;62.11
49585;BME280;35491;49.142;9.210;2023-08-01T20:40:17;98949.81;;;19.32;62.27
49585;BME280;35491;49.142;9.210;2023-08-01T20:41:20;98940.84;;;19.32;62.12
49585;BME280;35491;49.142;9.210;2023-08-01T20:42:21;98944.97;;;19.35;62.00
49585;BME280;35491;49.142;9.210;2023-08-01T20:43:25;98950.31;;;19.41;61.92
49585;BME280;35491;49.142;9.210;2023-08-01T20:44:26;98942.31;;;19.46;61.49
49585;BME280;35491;49.142;9.210;2023-08-01T20:45:29;98948.13;;;19.50;61.63
49585;BME280;35491;49.142;9.210;2023-08-01T20:46:30;98948.94;;;19.51;61.53
49585;BME280;35491;49.142;9.210;2023-08-01T20:47:34;98946.84;;;19.53;61.35
49585;BME280;35491;49.142;9.210;2023-08-01T20:48:35;98951.19;;;19.54;61.35
49585;BME280;35491;49.142;9.210;2023-08-01T20:49:38;98955.56;;;19.55;61.49